Latest Coastal Weather Observations for Swan Island

IDT60701

Issued at 5:21 am EST Friday 4 September 2015 (issued every 10 minutes, with the page automatically refreshed every 10 minutes)

About coastal observations | Map of coastal stations | Coastal observations for TAS | Marine services | Other Formats
Station Details ID: 092123 Name: SWAN ISLAND Lat: -40.73 Lon: 148.12 Height: 15.0 m
Data from the previous 72 hours. | See also: Recent months at Swan Island
Date/Time
EST
Temp

°C
Wind Pressure Rain
since 9am
mm
Weather Cloud Vis
km
Sea
Height
m
Swell
Dir
 
Speed
knots
Gust
knots
hPa Trend Height
m
Period
s
Dir
04/05:00am 6.5 WSW 4 4 1020.7 - 0.0 - - - - - - -
04/04:30am 7.0 WSW 4 4 1020.6 - 0.0 - - - - - - -
04/04:00am 8.1 SSW 2 3 1020.4 - 0.0 - - - - - - -
04/03:30am 7.9 S 4 5 1020.3 - 0.0 - - - - - - -
04/03:00am 8.1 SSW 4 5 1020.4 - 0.0 - - - - - - -
04/02:30am 8.1 SE 4 5 1020.4 - 0.0 - - - - - - -
04/02:00am 8.1 SE 4 6 1020.5 - 0.0 - - - - - - -
04/01:30am 8.3 SSE 5 7 1020.8 - 0.0 - - - - - - -
04/01:00am 8.9 SSE 5 7 1020.8 - 0.0 - - - - - - -
04/12:30am 9.0 SSE 6 8 1020.8 - 0.0 - - - - - - -
04/12:00am 9.0 SSE 7 11 1020.7 - 0.0 - - - - - - -
 
Date/Time
EST
Temp

°C
Wind Pressure Rain
since 9am
mm
Weather Cloud Vis
km
Sea
Height
m
Swell
Dir
 
Speed
knots
Gust
knots
hPa Trend Height
m
Period
s
Dir
03/11:30pm 9.4 SSE 7 9 1020.7 - 0.0 - - - - - - -
03/11:00pm 9.6 SSE 7 9 1020.7 - 0.0 - - - - - - -
03/10:30pm 10.1 SSE 9 11 1020.6 - 0.0 - - - - - - -
03/10:00pm 10.1 SSE 10 13 1020.4 - 0.0 - - - - - - -
03/09:30pm 10.3 SSE 10 13 1020.2 - 0.0 - - - - - - -
03/09:00pm 10.3 SSE 11 14 1019.8 - 0.0 - - - - - - -
03/08:30pm 10.4 SSE 11 14 1019.7 - 0.0 - - - - - - -
03/08:00pm 10.6 SSE 13 18 1019.4 - 0.0 - - - - - - -
03/07:30pm 10.8 SE 15 19 1019.0 - 0.0 - - - - - - -
03/07:00pm 10.8 SSE 13 18 1018.7 - 0.0 - - - - - - -
03/06:30pm 10.9 SSE 14 20 1018.2 - 0.0 - - - - - - -
03/06:00pm 11.0 SSE 15 20 1017.7 - 0.0 - - - - - - -
03/05:30pm 11.1 SE 18 23 1016.8 - 0.0 - - - - - - -
03/05:00pm 11.2 SE 19 23 1016.2 - 0.0 - - - - - - -
03/04:30pm 11.4 SE 21 25 1015.4 - 0.0 - - - - - - -
03/04:00pm 11.6 SE 21 26 1014.9 - 0.0 - - - - - - -
03/03:30pm 11.3 SE 20 26 1014.7 - 0.0 - - - - - - -
03/03:00pm 11.7 SE 21 26 1014.3 - 0.0 - - - - - - -
03/02:30pm 12.6 SE 23 28 1013.8 - 0.0 - - - - - - -
03/02:00pm 12.2 SE 23 29 1013.3 - 0.0 - - - - - - -
03/01:30pm 13.0 SE 22 28 1012.9 - 0.0 - - - - - - -
03/01:00pm 12.8 SE 22 29 1012.8 - 0.0 - - - - - - -
03/12:30pm 12.8 SE 22 29 1012.7 - 0.0 - - - - - - -
03/12:00pm 12.6 SE 23 29 1012.7 - 0.0 - - - - - - -
03/11:30am 12.6 SE 23 30 1012.6 - 0.0 - - - - - - -
03/11:00am 12.4 SE 24 29 1012.2 - 0.0 - - - - - - -
03/10:30am 12.4 SE 22 28 1011.9 - 0.0 - - - - - - -
03/10:00am 12.8 SE 20 27 1011.5 - 0.0 - - - - - - -
03/09:30am 12.0 SE 19 25 1011.1 - 0.0 - - - - - - -
03/09:00am 12.1 SE 20 25 1010.8 - 0.0 - - - - - - -
03/08:30am 11.8 SSE 16 21 1010.6 - 0.0 - - - - - - -
03/08:26am 11.7 SSE 15 20 1010.5 - 0.0 - - - - - - -
03/08:00am 10.9 S 8 10 1010.2 - 0.0 - - - - - - -
03/07:30am 10.4 S 7 9 1009.6 - 0.0 - - - - - - -
03/07:00am 10.7 S 7 10 1009.3 - 0.0 - - - - - - -
03/06:30am 10.4 SW 4 6 1008.8 - 0.0 - - - - - - -
03/06:00am 9.1 SW 5 7 1008.4 - 0.0 - - - - - - -
03/05:30am 8.5 WSW 5 6 1008.2 - 0.0 - - - - - - -
03/05:00am 8.2 W 4 5 1007.9 - 0.0 - - - - - - -
03/04:30am 8.8 WSW 3 4 1007.9 - 0.0 - - - - - - -
03/04:00am 9.2 SW 3 5 1007.9 - 0.0 - - - - - - -
03/03:30am 9.2 WSW 3 4 1007.9 - 0.0 - - - - - - -
03/03:00am 9.1 W 5 8 1007.7 - 0.0 - - - - - - -
03/02:30am 8.7 WSW 6 7 1008.0 - 0.0 - - - - - - -
03/02:00am 8.4 WSW 6 7 1008.7 - 0.0 - - - - - - -
03/01:30am 8.9 W 4 6 1009.0 - 0.0 - - - - - - -
03/01:00am 9.5 W 4 5 1009.1 - 0.0 - - - - - - -
03/12:30am 9.2 WSW 3 4 1009.4 - 0.0 - - - - - - -
03/12:00am 9.3 SW 4 5 1009.4 - 0.0 - - - - - - -
 
Date/Time
EST
Temp

°C
Wind Pressure Rain
since 9am
mm
Weather Cloud Vis
km
Sea
Height
m
Swell
Dir
 
Speed
knots
Gust
knots
hPa Trend Height
m
Period
s
Dir
02/11:30pm 9.2 SW 4 6 1009.4 - 0.0 - - - - - - -
02/11:00pm 9.1 SW 4 5 1009.6 - 0.0 - - - - - - -
02/10:30pm 9.2 SW 4 5 1010.0 - 0.0 - - - - - - -
02/10:00pm 9.3 W 4 5 1010.2 - 0.0 - - - - - - -
02/09:30pm 9.8 NW 5 7 1010.3 - 0.0 - - - - - - -
02/09:00pm 9.9 NW 6 7 1010.4 - 0.0 - - - - - - -
02/08:30pm 9.7 NW 4 6 1010.2 - 0.0 - - - - - - -
02/08:00pm 9.6 NW 4 6 1010.1 - 0.0 - - - - - - -
02/07:30pm 9.7 NW 5 7 1010.1 - 0.0 - - - - - - -
02/07:00pm 8.6 WSW 4 5 1009.6 - 0.0 - - - - - - -
02/06:30pm 9.2 WSW 3 3 1009.6 - 0.0 - - - - - - -
02/06:00pm 9.9 CALM 0 2 1009.7 - 0.0 - - - - - - -
02/05:30pm 10.5 WNW 4 5 1009.7 - 0.0 - - - - - - -
02/05:00pm 11.4 WNW 3 5 1009.7 - 0.0 - - - - - - -
02/04:30pm 11.8 WNW 4 6 1009.8 - 0.0 - - - - - - -
02/04:00pm 12.0 W 6 8 1009.9 - 0.0 - - - - - - -
02/03:30pm 12.6 W 9 11 1010.1 - 0.0 - - - - - - -
02/03:00pm 12.4 W 9 12 1010.5 - 0.0 - - - - - - -
02/02:30pm 13.1 WNW 7 9 1010.5 - 0.0 - - - - - - -
02/02:00pm 13.1 WNW 6 8 1010.7 - 0.0 - - - - - - -
02/01:30pm 12.8 WNW 5 7 1011.3 - 0.0 - - - - - - -
02/01:00pm 12.0 NW 6 9 1012.0 - 0.0 - - - - - - -
02/12:30pm 12.2 NW 7 9 1012.4 - 0.0 - - - - - - -
02/12:00pm 11.8 NW 6 9 1012.7 - 0.0 - - - - - - -
02/11:30am 12.6 NW 5 7 1013.2 - 0.0 - - - - - - -
02/11:00am 11.9 NW 6 9 1013.6 - 0.0 - - - - - - -
02/10:30am 10.8 NW 9 11 1013.9 - 0.0 - - - - - - -
02/10:00am 11.4 NW 8 10 1014.1 - 0.0 - - - - - - -
02/09:30am 10.8 NW 7 10 1014.1 - 0.0 - - - - - - -
02/09:00am 11.2 NNW 7 9 1014.1 - 0.0 - - - - - - -
02/08:30am 10.1 NW 7 10 1014.3 - 0.0 - - - - - - -
02/08:00am 9.8 NW 6 10 1014.2 - 0.0 - - - - - - -
02/07:30am 9.0 WNW 5 9 1014.1 - 0.0 - - - - - - -
02/07:00am 8.3 NW 7 10 1014.0 - 0.0 - - - - - - -
02/06:30am 7.7 NW 6 10 1013.9 - 0.0 - - - - - - -
02/06:00am 7.2 W 3 5 1013.9 - 0.0 - - - - - - -
02/05:30am 6.8 SW 4 4 1013.8 - 0.0 - - - - - - -
02/05:00am 6.8 WSW 3 4 1013.8 - 0.0 - - - - - - -
02/04:30am 6.7 SW 4 4 1013.9 - 0.0 - - - - - - -
02/04:00am 7.0 SW 4 5 1013.7 - 0.0 - - - - - - -
02/03:30am 6.5 SW 4 5 1013.9 - 0.0 - - - - - - -
02/03:00am 6.4 WSW 4 5 1014.1 - 0.0 - - - - - - -
02/02:30am 6.7 SW 5 5 1014.2 - 0.0 - - - - - - -
02/02:00am 7.1 SW 5 5 1014.4 - 0.0 - - - - - - -
02/01:30am 7.0 SW 4 5 1014.6 - 0.0 - - - - - - -
02/01:00am 7.5 SW 3 4 1014.6 - 0.0 - - - - - - -
02/12:30am 7.6 WSW 4 5 1014.8 - 0.0 - - - - - - -
02/12:00am 8.3 WNW 6 8 1014.9 - 0.0 - - - - - - -
 
Date/Time
EST
Temp

°C
Wind Pressure Rain
since 9am
mm
Weather Cloud Vis
km
Sea
Height
m
Swell
Dir
 
Speed
knots
Gust
knots
hPa Trend Height
m
Period
s
Dir
01/11:30pm 8.1 W 4 6 1015.1 - 0.0 - - - - - - -
01/11:00pm 8.0 W 5 6 1015.1 - 0.0 - - - - - - -
01/10:30pm 7.8 WSW 4 5 1015.0 - 0.0 - - - - - - -
01/10:00pm 8.5 W 6 8 1015.2 - 0.0 - - - - - - -
01/09:30pm 8.6 WNW 7 9 1015.2 - 0.0 - - - - - - -
01/09:00pm 8.0 W 5 8 1015.0 - 0.0 - - - - - - -
01/08:30pm 7.8 W 4 4 1014.4 - 0.0 - - - - - - -
01/08:00pm 8.3 W 5 5 1014.2 - 0.0 - - - - - - -
01/07:30pm 8.3 WSW 3 3 1014.0 - 0.0 - - - - - - -
01/07:00pm 7.9 WSW 4 5 1014.0 - 0.0 - - - - - - -
01/06:30pm 8.5 W 4 5 1013.9 - 0.0 - - - - - - -
01/06:00pm 9.0 W 5 6 1013.9 - 0.0 - - - - - - -
01/05:30pm 9.7 W 6 8 1013.8 - 0.0 - - - - - - -
01/05:00pm 10.7 W 7 10 1013.7 - 0.0 - - - - - - -
01/04:30pm 11.5 W 8 11 1013.8 - 0.0 - - - - - - -
01/04:00pm 12.1 WNW 5 8 1013.7 - 0.0 - - - - - - -
01/03:30pm 11.9 NW 6 9 1013.9 - 0.0 - - - - - - -
01/03:00pm 11.9 NW 5 7 1014.2 - 0.0 - - - - - - -
01/02:30pm 12.1 NW 6 8 1014.2 - 0.0 - - - - - - -
01/02:00pm 12.4 NW 5 6 1014.1 - 0.0 - - - - - - -
01/01:30pm 12.4 NW 7 9 1014.1 - 0.0 - - - - - - -
01/01:00pm 12.8 NW 7 9 1014.1 - 0.0 - - - - - - -
01/12:30pm 12.8 NW 7 10 1014.3 - 0.0 - - - - - - -
01/12:00pm 12.8 NW 7 9 1014.9 - 0.0 - - - - - - -
01/11:30am 12.6 NW 6 7 1015.0 - 0.0 - - - - - - -
01/11:00am 12.5 NW 5 7 1015.2 - 0.0 - - - - - - -
01/10:30am 12.5 NNW 5 6 1015.2 - 0.0 - - - - - - -
01/10:00am 12.5 SSE 3 3 1015.3 - 0.0 - - - - - - -
01/09:30am 11.7 S 3 5 1015.3 - 0.0 - - - - - - -
01/09:00am 11.4 WSW 3 5 1015.4 - 0.0 - - - - - - -
01/08:30am 9.2 SW 4 4 1015.3 - 0.0 - - - - - - -
01/08:00am 8.5 WSW 4 5 1015.3 - 0.0 - - - - - - -
01/07:30am 7.7 WSW 3 4 1015.2 - 0.0 - - - - - - -
01/07:00am 7.7 WSW 4 4 1015.1 - 0.0 - - - - - - -
01/06:30am 6.9 WSW 4 5 1015.0 - 0.0 - - - - - - -
01/06:00am 7.0 WSW 4 4 1015.0 - 0.0 - - - - - - -
01/05:30am 7.5 WSW 3 4 1015.0 - 0.0 - - - - - - -

Other Formats:

Comma delimited format used in spreadsheet applications
http://www.bom.gov.au/fwo/IDT60701/IDT60701.95985.axf

JavaScript Object Notation format (JSON) in row-major order
http://www.bom.gov.au/fwo/IDT60701/IDT60701.95985.json